Spokane, WA

5:03 PM PDT on August 30, 2014 (GMT -0700)
Fairchild Air Force Base | Change Station
CLOSE
Current Station
Airport
Location: Spokane Fairchild,
Elevation: 2461 ft
Nearby Weather Stations

Elev 2461 ft 47.62 °N, 117.66 °W | Updated 5 minutes ago

Partly Cloudy
Partly Cloudy
71 °F
Feels Like 71 °F
N
16
Wind Variable Wind from WSW
Gusts 22 mph

Today
High -- | Low -- °F
--% Chance of Precip.
Yesterday
High -- | Low -- °F
Precip. -- in
6:06 AM 7:34 PM
Waxing Crescent, 25% visible
Pressure 29.83 in
Visibility 10.0 miles
Clouds Few 11000 ft
Dew Point 42 °F
Humidity 36%
Rainfall 0.00 in
Snow Depth Not available.
UV 2 out of 12
Pollen 7.40 out of 12
PM2.5 Good
Flu Activity Not available.
METAR KSKA 302358Z AUTO 24014G19KT 10SM FEW110 22/06 A2984 RMK AO2 SLP099 T02160057 10229 20195 402610101 56009

More Conditions Fewer Conditions

Pressure 29.83 in
Visibility 10.0 miles
Clouds Few 11000 ft
Dew Point 42 °F
Humidity 36%
Rainfall 0.00 in
Snow Depth Not available.
UV 2 out of 12
Pollen 7.40 out of 12
PM2.5 Good
Flu Activity Not available.
METAR KSKA 302358Z AUTO 24014G19KT 10SM FEW110 22/06 A2984 RMK AO2 SLP099 T02160057 10229 20195 402610101 56009

More Conditions Fewer Conditions

10-Day Weather Forecast

Almanac

Astronomy

Aug. 30, 2014 Rise Set
Actual Time 6:06 AM PDT 7:34 PM PDT
Civil Twilight 5:34 AM PDT 8:06 PM PDT
Nautical Twilight 4:55 AM PDT 8:45 PM PDT
Astronomical Twilight 4:12 AM PDT 9:27 PM PDT
Moon 11:21 AM PDT (8/30) 9:47 PM PDT (8/30)
Length of Visible Light 14h 32m
Length of Day
13h 28m
Tomorrow will be 3m 19s shorter.
Waxing Crescent, 25% of the Moon is Illuminated
Today
Waxing Crescent
Sep 2
First Quarter
Sep 8
Full
Sep 15
Last Quarter
Sep 24
New

Today's Extremes

State Highs State Lows

Community

WunderPhotos

Upload Photos

1,748,696 photos uploaded!

Nearby

Air Quality

  Air Quality AQ Index Pollutant
Yesterday Good
OZONE
Yesterday Good
PM10
Current Good
PM2.5
Saturday Good
PM10
Saturday Good
OZONE
Sunday Good
PM10
Sunday Good
OZONE
Monday Good
PM10
Monday Good
OZONE

Snow Depth

Station Depth Elevation
Quartz Peak 1 in 4700 ft
Moses Mountain 0 in 5300 ft
Sentinel Butte 0 in 4920 ft
Sourdough Gulch 0 in 4000 ft
Touchet 0 in 5530 ft

Earthquake Activity

City Distance Mag. Time & Date
No recent earthquake activity has been reported nearby.
Minimum magnitude displayed is 2.5.

Coastal Water Temperatures

Place Temperature
No Stations Reporting

Nearby Weather Stations